Lincoln City, Oregon
Current Conditions -  °F | °C
As of 10:55 PM on Wednesday 22 Oct 2014 (Local Time) from KONP Reporting Station
Scattered Clouds Scattered Clouds  
Wind Chill: 12°   Ceiling: Unl
Heat Index: 12°   Visibility: 10mi
Dew Point: 11°   Wind: 7mph
Humidity: 94%   Direction: 170°S
Pressure: 29.8"   Gusts: NA
Location:  44.93°N, 124.01°W
Report Text: KONP 230555Z AUTO 17006KT 10SM SCT075 12/11 A2980 RMK AO2
Loading
Personal Weather Stations






























Interactive Weather Map
Tropical Storm Tracking
New forecast layout! Learn more

10-Day Weather Forecast

Advertisements
Track Severe Weather on mobile